Time;durP1;ratioP1;P1;durP2;ratioP2;P2;SDS_P1;SDS_P2;PMS_P1;PMS_P2;Temp;Humidity;BMP_temperature;BMP_pressure;BME280_temperature;BME280_humidity;BME280_pressure;Samples;Min_cycle;Max_cycle;Signal;HPM_P1;HPM_P2
2021/11/29 00:01:17;;;;;;;17.83;11.73;;;0.40;99.90;;;;;;5123302;27;20194;-69
2021/11/29 00:03:46;;;;;;;14.97;10.63;;;0.50;99.90;;;;;;5143661;27;20652;-68
2021/11/29 00:06:14;;;;;;;18.03;10.53;;;0.60;99.90;;;;;;5145432;27;20674;-69
2021/11/29 00:08:42;;;;;;;11.40;9.90;;;0.70;99.90;;;;;;5150443;27;20194;-68
2021/11/29 00:11:11;;;;;;;13.47;10.10;;;0.70;99.90;;;;;;5146058;27;20247;-68
2021/11/29 00:13:40;;;;;;;19.00;9.73;;;0.80;99.90;;;;;;5149630;27;20217;-68
2021/11/29 00:16:09;;;;;;;14.60;9.43;;;0.90;99.90;;;;;;5145646;27;20264;-68
2021/11/29 00:18:39;;;;;;;15.40;9.13;;;1.00;99.90;;;;;;5150272;27;20189;-68
2021/11/29 00:21:07;;;;;;;12.77;9.20;;;1.10;99.90;;;;;;5156719;27;20193;-69
2021/11/29 00:23:36;;;;;;;12.07;9.07;;;1.10;99.90;;;;;;5156251;27;20258;-68
2021/11/29 00:26:05;;;;;;;15.17;9.63;;;1.20;99.90;;;;;;5142987;27;20222;-69
2021/11/29 00:28:34;;;;;;;15.43;9.87;;;1.20;99.90;;;;;;5153020;27;20321;-69
2021/11/29 00:31:02;;;;;;;11.93;9.17;;;1.20;99.90;;;;;;5155512;27;20220;-68
2021/11/29 00:33:32;;;;;;;11.07;8.57;;;1.30;99.90;;;;;;5136001;27;20197;-69
2021/11/29 00:36:00;;;;;;;9.17;7.70;;;1.30;99.90;;;;;;5154648;27;20261;-69
2021/11/29 00:38:30;;;;;;;13.20;7.80;;;1.30;99.90;;;;;;5133937;27;20842;-68
2021/11/29 00:41:01;;;;;;;7.97;7.10;;;1.20;99.90;;;;;;5135470;27;20213;-69
2021/11/29 00:43:29;;;;;;;8.93;7.63;;;1.20;99.90;;;;;;5154524;27;20258;-69
2021/11/29 00:45:57;;;;;;;10.07;7.07;;;1.10;99.90;;;;;;5161728;27;20281;-68
2021/11/29 00:48:26;;;;;;;8.70;7.27;;;1.10;99.90;;;;;;5154977;27;20196;-69
2021/11/29 00:50:58;;;;;;;9.43;7.50;;;1.00;99.90;;;;;;5133631;27;20224;-68
2021/11/29 00:53:26;;;;;;;9.03;7.13;;;1.00;99.90;;;;;;5147318;27;20205;-68
2021/11/29 00:55:55;;;;;;;8.33;7.10;;;0.90;99.90;;;;;;5150513;27;20206;-67
2021/11/29 00:58:23;;;;;;;9.27;7.00;;;0.80;99.90;;;;;;5133772;27;20280;-68
2021/11/29 01:00:54;;;;;;;8.73;7.33;;;0.80;99.90;;;;;;5153237;27;20706;-68
2021/11/29 01:03:23;;;;;;;7.13;6.43;;;0.80;99.90;;;;;;5153083;27;20198;-69
2021/11/29 01:05:52;;;;;;;8.07;6.80;;;0.80;99.90;;;;;;5131564;27;20197;-69
2021/11/29 01:08:22;;;;;;;7.60;6.90;;;0.70;99.90;;;;;;5150625;27;20185;-69
2021/11/29 01:10:50;;;;;;;8.90;7.40;;;0.80;99.90;;;;;;5132173;27;20715;-68
2021/11/29 01:13:19;;;;;;;10.37;7.03;;;0.80;99.90;;;;;;5135085;27;20670;-68
2021/11/29 01:15:48;;;;;;;8.00;7.20;;;0.80;99.90;;;;;;5154737;27;20209;-68
2021/11/29 01:18:16;;;;;;;14.30;7.80;;;0.80;99.90;;;;;;5136515;27;20582;-68
2021/11/29 01:20:46;;;;;;;9.00;7.30;;;0.80;99.90;;;;;;5145500;27;20583;-68
2021/11/29 01:23:16;;;;;;;9.43;6.77;;;0.70;99.90;;;;;;5152109;27;20204;-68
2021/11/29 01:25:47;;;;;;;9.47;7.53;;;0.70;99.90;;;;;;5131727;27;20182;-68
2021/11/29 01:28:15;;;;;;;10.33;8.10;;;0.70;99.90;;;;;;5137006;27;20189;-69
2021/11/29 01:30:44;;;;;;;9.97;7.73;;;0.80;99.90;;;;;;5125026;27;20265;-67
2021/11/29 01:33:13;;;;;;;12.80;8.13;;;0.80;99.90;;;;;;5141971;27;20196;-68
2021/11/29 01:35:42;;;;;;;11.60;8.37;;;0.70;99.90;;;;;;5142715;27;20202;-68
2021/11/29 01:38:11;;;;;;;11.90;7.57;;;0.70;99.90;;;;;;5139490;27;20216;-68
2021/11/29 01:40:41;;;;;;;10.00;7.57;;;0.70;99.90;;;;;;5144421;27;20182;-68
2021/11/29 01:43:13;;;;;;;10.17;7.83;;;0.60;99.90;;;;;;5131171;27;20195;-68
2021/11/29 01:45:44;;;;;;;14.00;8.30;;;0.60;99.90;;;;;;5146019;27;20695;-68
2021/11/29 01:48:13;;;;;;;8.87;7.27;;;0.60;99.90;;;;;;5152410;27;20208;-68
2021/11/29 01:50:44;;;;;;;7.80;6.77;;;0.60;99.90;;;;;;5150874;27;20218;-68
2021/11/29 01:53:13;;;;;;;12.17;7.10;;;0.60;99.90;;;;;;5148253;27;20201;-69
2021/11/29 01:55:44;;;;;;;8.27;7.00;;;0.60;99.90;;;;;;5148563;27;20213;-68
2021/11/29 01:58:15;;;;;;;11.73;6.90;;;0.50;99.90;;;;;;5146638;27;20198;-68
2021/11/29 02:00:46;;;;;;;7.40;6.23;;;0.40;99.90;;;;;;5152420;27;20197;-68
2021/11/29 02:03:16;;;;;;;11.37;6.47;;;0.40;99.90;;;;;;5145782;27;20190;-68
2021/11/29 02:05:44;;;;;;;11.07;6.50;;;0.40;99.90;;;;;;5141459;27;20185;-68
2021/11/29 02:08:13;;;;;;;7.20;6.00;;;0.40;99.90;;;;;;5149714;27;20186;-69
2021/11/29 02:10:42;;;;;;;6.93;6.13;;;0.40;99.90;;;;;;5132640;27;20293;-68
2021/11/29 02:13:12;;;;;;;9.23;5.90;;;0.40;99.90;;;;;;5144272;27;20692;-68
2021/11/29 02:15:41;;;;;;;6.47;5.83;;;0.40;99.90;;;;;;5145150;27;20570;-68
2021/11/29 02:18:10;;;;;;;6.33;5.70;;;0.40;99.90;;;;;;5154681;27;20197;-68
2021/11/29 02:20:40;;;;;;;8.07;5.57;;;0.40;99.90;;;;;;5150785;27;20204;-68
2021/11/29 02:23:08;;;;;;;7.37;5.20;;;0.40;99.90;;;;;;5149097;27;20246;-68
2021/11/29 02:25:37;;;;;;;8.97;5.90;;;0.40;99.90;;;;;;5149587;27;20226;-68
2021/11/29 02:28:05;;;;;;;8.53;5.93;;;0.30;99.90;;;;;;5145593;27;20194;-69
2021/11/29 02:30:34;;;;;;;6.70;5.60;;;0.40;99.90;;;;;;5151110;27;20204;-69
2021/11/29 02:33:03;;;;;;;8.87;5.27;;;0.40;99.90;;;;;;5130336;27;20301;-68
2021/11/29 02:35:31;;;;;;;8.53;5.43;;;0.40;99.90;;;;;;5129111;27;20205;-68
2021/11/29 02:38:01;;;;;;;5.83;5.33;;;0.40;99.90;;;;;;5148335;27;20196;-68
2021/11/29 02:40:31;;;;;;;9.80;5.60;;;0.50;99.90;;;;;;5149672;27;20277;-69
2021/11/29 02:43:00;;;;;;;11.73;6.07;;;0.40;99.90;;;;;;5146291;27;20205;-68
2021/11/29 02:45:29;;;;;;;7.13;6.30;;;0.40;99.90;;;;;;5144664;27;20228;-68
2021/11/29 02:47:58;;;;;;;9.67;5.70;;;0.40;99.90;;;;;;5133031;27;20201;-68
2021/11/29 02:50:27;;;;;;;9.17;5.93;;;0.40;99.90;;;;;;5128231;27;20213;-68
2021/11/29 02:52:55;;;;;;;9.47;5.53;;;0.40;99.90;;;;;;5160078;27;20205;-68
2021/11/29 02:55:25;;;;;;;6.30;5.50;;;0.30;99.90;;;;;;5128308;27;20508;-68
2021/11/29 02:57:54;;;;;;;8.47;5.80;;;0.30;99.90;;;;;;5145516;27;20234;-68
2021/11/29 03:00:22;;;;;;;6.60;5.47;;;0.30;99.90;;;;;;5146692;27;20198;-68
2021/11/29 03:03:03;;;;;;;11.60;6.43;;;0.30;99.90;;;;;;5148230;27;20602;-68
2021/11/29 03:05:32;;;;;;;5.87;5.37;;;0.40;99.90;;;;;;5145344;27;20199;-69
2021/11/29 03:08:00;;;;;;;5.90;5.30;;;0.30;99.90;;;;;;5143051;27;20189;-68
2021/11/29 03:10:30;;;;;;;9.13;5.37;;;0.30;99.90;;;;;;5140396;27;20205;-68
2021/11/29 03:12:59;;;;;;;6.03;5.43;;;0.30;99.90;;;;;;5123491;27;20221;-68
2021/11/29 03:15:28;;;;;;;9.87;5.27;;;0.30;99.90;;;;;;5130885;27;20204;-68
2021/11/29 03:17:57;;;;;;;15.63;5.60;;;0.20;99.90;;;;;;5157799;27;20190;-68
2021/11/29 03:20:25;;;;;;;6.07;5.00;;;0.30;99.90;;;;;;5131213;27;20194;-68
2021/11/29 03:22:54;;;;;;;7.23;5.03;;;0.30;99.90;;;;;;5135572;27;20181;-68
2021/11/29 03:25:22;;;;;;;6.27;4.63;;;0.30;99.90;;;;;;5140666;27;20194;-68
2021/11/29 03:27:52;;;;;;;5.97;4.87;;;0.20;99.90;;;;;;5143745;27;20250;-68
2021/11/29 03:30:21;;;;;;;6.33;4.93;;;0.20;99.90;;;;;;5158597;27;20201;-68
2021/11/29 03:32:50;;;;;;;7.37;5.03;;;0.30;99.90;;;;;;5156561;27;20208;-68
2021/11/29 03:35:18;;;;;;;12.90;4.53;;;0.30;99.90;;;;;;5149024;27;20194;-68
2021/11/29 03:37:48;;;;;;;8.30;5.20;;;0.30;99.90;;;;;;5142861;27;20230;-68
2021/11/29 03:40:17;;;;;;;7.07;4.70;;;0.30;99.90;;;;;;5148040;27;20241;-68
2021/11/29 03:42:46;;;;;;;7.00;4.70;;;0.30;99.90;;;;;;5149839;27;20197;-68
2021/11/29 03:45:16;;;;;;;8.97;4.33;;;0.30;99.90;;;;;;5146462;27;20320;-68
2021/11/29 03:47:44;;;;;;;5.37;4.43;;;0.30;99.90;;;;;;5149526;27;20193;-69
2021/11/29 03:50:13;;;;;;;4.70;4.30;;;0.30;99.90;;;;;;5149019;27;20200;-69
2021/11/29 03:52:42;;;;;;;5.47;4.20;;;0.20;99.90;;;;;;5152445;27;20217;-68
2021/11/29 03:55:10;;;;;;;6.17;4.20;;;0.10;99.90;;;;;;5154904;27;20192;-68
2021/11/29 03:57:39;;;;;;;4.53;3.93;;;0.10;99.90;;;;;;5154108;27;20193;-68
2021/11/29 04:00:09;;;;;;;5.47;4.60;;;0.10;99.90;;;;;;5157946;27;20189;-68
2021/11/29 04:02:39;;;;;;;7.37;3.80;;;0.10;99.90;;;;;;5153226;27;20257;-68
2021/11/29 04:05:08;;;;;;;6.53;4.00;;;0.10;99.90;;;;;;5137050;27;20189;-68
2021/11/29 04:07:37;;;;;;;8.07;3.90;;;0.20;99.90;;;;;;5152270;27;20211;-69
2021/11/29 04:10:06;;;;;;;3.67;3.33;;;0.20;99.90;;;;;;5144073;27;20201;-68
2021/11/29 04:12:35;;;;;;;6.63;3.70;;;0.20;99.90;;;;;;5149318;27;20200;-68
2021/11/29 04:15:05;;;;;;;3.90;3.30;;;0.30;99.90;;;;;;5129091;27;20200;-67
2021/11/29 04:17:34;;;;;;;4.87;3.67;;;0.30;99.90;;;;;;5130990;27;20192;-68
2021/11/29 04:20:05;;;;;;;6.63;4.77;;;0.30;99.90;;;;;;5158806;27;20197;-68
2021/11/29 04:22:34;;;;;;;6.93;4.10;;;0.30;99.90;;;;;;5151398;27;20608;-68
2021/11/29 04:25:05;;;;;;;2.63;2.53;;;0.30;99.90;;;;;;5148605;27;20206;-68
2021/11/29 04:27:35;;;;;;;3.30;2.50;;;0.30;99.90;;;;;;5148222;27;20202;-68
2021/11/29 04:30:09;;;;;;;2.60;2.47;;;0.30;99.90;;;;;;5147516;27;20254;-67
2021/11/29 04:32:38;;;;;;;3.07;2.87;;;0.40;99.90;;;;;;5158943;27;20201;-68
2021/11/29 04:35:09;;;;;;;4.87;2.93;;;0.40;99.90;;;;;;5153730;27;20200;-68
2021/11/29 04:37:39;;;;;;;3.90;2.67;;;0.30;99.90;;;;;;5110951;27;20189;-68
2021/11/29 04:40:08;;;;;;;2.90;2.70;;;0.30;99.90;;;;;;5153891;27;20198;-68
2021/11/29 04:42:37;;;;;;;2.50;2.40;;;0.30;99.90;;;;;;5148083;27;20193;-68
2021/11/29 04:45:07;;;;;;;2.50;2.40;;;0.20;99.90;;;;;;5152411;27;20229;-68
2021/11/29 04:47:37;;;;;;;2.40;2.30;;;0.20;99.90;;;;;;5160433;27;20224;-68
2021/11/29 04:50:08;;;;;;;3.20;2.40;;;0.20;99.90;;;;;;5154185;27;20249;-67
2021/11/29 04:52:36;;;;;;;7.87;2.43;;;0.20;99.90;;;;;;5135186;27;20763;-68
2021/11/29 04:55:07;;;;;;;2.10;2.00;;;0.20;99.90;;;;;;5153529;27;20651;-68
2021/11/29 04:57:36;;;;;;;2.20;2.00;;;0.30;99.90;;;;;;5126805;27;20186;-68
2021/11/29 05:00:07;;;;;;;2.40;2.27;;;0.30;99.90;;;;;;5166253;27;20196;-69
2021/11/29 05:02:36;;;;;;;2.10;2.00;;;0.20;99.90;;;;;;5133574;27;20227;-68
2021/11/29 05:05:06;;;;;;;2.37;2.27;;;0.20;99.90;;;;;;5129744;27;20194;-68
2021/11/29 05:07:36;;;;;;;2.33;2.23;;;0.20;99.90;;;;;;5159762;27;20190;-68
2021/11/29 05:10:06;;;;;;;2.40;2.30;;;0.30;99.90;;;;;;5154209;27;20197;-68
2021/11/29 05:12:35;;;;;;;3.87;2.53;;;0.30;99.90;;;;;;5156588;27;20240;-67
2021/11/29 05:15:05;;;;;;;2.90;2.50;;;0.30;99.90;;;;;;5140131;27;20205;-68
2021/11/29 05:17:35;;;;;;;4.83;2.87;;;0.20;99.90;;;;;;5157805;27;20551;-68
2021/11/29 05:20:05;;;;;;;3.93;3.20;;;0.20;99.90;;;;;;5146153;27;20225;-67
2021/11/29 05:22:35;;;;;;;3.97;3.27;;;0.00;99.90;;;;;;5154638;27;20209;-69
2021/11/29 05:25:04;;;;;;;4.10;3.77;;;-0.10;99.90;;;;;;5150905;27;20228;-69
2021/11/29 05:27:33;;;;;;;5.23;4.10;;;-0.10;99.90;;;;;;5147294;27;20243;-68
2021/11/29 05:30:01;;;;;;;6.07;4.70;;;0.00;99.90;;;;;;5150559;27;20276;-69
2021/11/29 05:32:30;;;;;;;5.90;4.97;;;0.10;99.90;;;;;;5157486;27;20212;-68
2021/11/29 05:34:58;;;;;;;5.87;4.30;;;0.20;99.90;;;;;;5151735;27;21393;-68
2021/11/29 05:37:27;;;;;;;11.53;4.53;;;0.40;99.90;;;;;;5154281;27;20185;-68
2021/11/29 05:39:57;;;;;;;4.90;4.40;;;0.50;99.90;;;;;;5147936;27;20185;-68
2021/11/29 05:42:43;;;;;;;18.97;7.17;;;0.40;99.90;;;;;;5153158;27;20197;-68
2021/11/29 05:45:13;;;;;;;5.43;4.97;;;0.40;99.90;;;;;;5136498;27;20235;-68
2021/11/29 05:47:42;;;;;;;4.70;4.30;;;0.40;99.90;;;;;;5102711;27;20199;-68
2021/11/29 05:50:14;;;;;;;4.50;4.20;;;0.30;99.90;;;;;;5106186;27;20195;-68
2021/11/29 05:52:42;;;;;;;5.00;4.50;;;0.30;99.90;;;;;;5107139;27;20281;-68
2021/11/29 05:55:14;;;;;;;5.00;4.50;;;0.30;99.90;;;;;;5079693;28;20241;-68
2021/11/29 05:57:43;;;;;;;5.77;4.60;;;0.30;99.90;;;;;;5078554;28;20197;-68
2021/11/29 06:00:17;;;;;;;4.73;4.33;;;0.40;99.90;;;;;;5114032;27;20205;-67
2021/11/29 06:03:08;;;;;;;6.07;5.00;;;0.30;99.90;;;;;;5105806;27;20712;-67
2021/11/29 06:05:37;;;;;;;5.47;4.97;;;0.30;99.90;;;;;;5078985;28;20196;-68
2021/11/29 06:08:06;;;;;;;7.97;5.50;;;0.30;99.90;;;;;;5092058;27;20191;-68
2021/11/29 06:10:36;;;;;;;5.47;4.87;;;0.40;99.90;;;;;;5105537;27;20217;-68
2021/11/29 06:13:04;;;;;;;6.60;5.60;;;0.40;99.90;;;;;;5082609;28;20242;-68
2021/11/29 06:15:33;;;;;;;5.27;4.70;;;0.30;99.90;;;;;;5098884;27;20191;-68
2021/11/29 06:18:02;;;;;;;6.43;4.63;;;0.40;99.90;;;;;;5085508;27;20531;-68
2021/11/29 06:20:32;;;;;;;6.03;4.70;;;0.40;99.90;;;;;;5107838;27;20199;-68
2021/11/29 06:23:01;;;;;;;7.80;4.30;;;0.40;99.90;;;;;;5102500;27;20195;-68
2021/11/29 06:25:29;;;;;;;6.43;4.43;;;0.40;99.90;;;;;;5096521;27;20614;-67
2021/11/29 06:28:00;;;;;;;7.13;4.57;;;0.40;99.90;;;;;;5100898;27;20202;-68
2021/11/29 06:30:29;;;;;;;7.93;4.30;;;0.40;99.90;;;;;;5082240;28;20658;-68
2021/11/29 06:32:57;;;;;;;10.13;4.70;;;0.40;99.90;;;;;;5101515;27;21293;-68
2021/11/29 06:35:26;;;;;;;8.93;4.63;;;0.40;99.90;;;;;;5078826;28;20225;-68
2021/11/29 06:37:59;;;;;;;7.17;5.10;;;0.30;99.90;;;;;;5099709;27;20269;-68
2021/11/29 06:40:28;;;;;;;6.63;4.90;;;0.30;99.90;;;;;;5105679;27;20197;-69
2021/11/29 06:42:56;;;;;;;7.00;5.33;;;0.30;99.90;;;;;;5094099;28;20202;-68
2021/11/29 06:45:26;;;;;;;6.73;4.97;;;0.30;99.90;;;;;;5121677;27;20289;-68
2021/11/29 06:47:55;;;;;;;7.43;5.03;;;0.30;99.90;;;;;;5125420;27;20209;-69
2021/11/29 06:50:24;;;;;;;7.67;5.30;;;0.20;99.90;;;;;;5133295;27;20189;-68
2021/11/29 06:52:52;;;;;;;7.23;5.30;;;0.30;99.90;;;;;;5125524;27;20660;-69
2021/11/29 06:55:21;;;;;;;9.60;5.60;;;0.30;99.90;;;;;;5110192;27;20219;-68
2021/11/29 06:57:50;;;;;;;11.53;5.77;;;0.30;99.90;;;;;;5118925;27;20625;-69
2021/11/29 07:00:23;;;;;;;19.30;6.57;;;0.30;99.90;;;;;;5135894;27;20242;-68
2021/11/29 07:02:54;;;;;;;9.00;5.83;;;0.30;99.90;;;;;;5122428;27;20237;-69
2021/11/29 07:05:25;;;;;;;7.37;5.23;;;0.40;99.90;;;;;;5137186;27;20799;-68
2021/11/29 07:07:54;;;;;;;8.57;5.33;;;0.30;99.90;;;;;;5144668;27;20198;-68
2021/11/29 07:10:25;;;;;;;13.17;5.80;;;0.30;99.90;;;;;;5122671;27;20185;-68
2021/11/29 07:12:55;;;;;;;8.97;5.83;;;0.40;99.90;;;;;;5144078;27;20241;-68
2021/11/29 07:15:25;;;;;;;10.73;6.10;;;0.30;99.90;;;;;;5128087;27;20213;-68
2021/11/29 07:17:55;;;;;;;10.00;5.80;;;0.30;99.90;;;;;;5146053;27;20190;-68
2021/11/29 07:20:24;;;;;;;12.60;6.40;;;0.20;99.90;;;;;;5145694;27;20205;-68
2021/11/29 07:22:53;;;;;;;7.77;5.77;;;0.20;99.90;;;;;;5150651;27;20205;-68
2021/11/29 07:25:24;;;;;;;13.33;6.40;;;0.20;99.90;;;;;;5140897;27;20208;-68
2021/11/29 07:27:56;;;;;;;15.90;6.50;;;0.20;99.90;;;;;;5124012;27;20193;-69
2021/11/29 07:30:26;;;;;;;13.60;6.47;;;0.20;99.90;;;;;;5142352;27;20186;-68
2021/11/29 07:32:56;;;;;;;11.97;6.37;;;0.40;99.90;;;;;;5128614;27;20217;-68
2021/11/29 07:35:31;;;;;;;13.10;6.33;;;0.40;99.90;;;;;;5149020;27;20667;-69
2021/11/29 07:38:00;;;;;;;12.20;6.30;;;0.40;99.90;;;;;;5143468;27;20200;-68
2021/11/29 07:40:30;;;;;;;12.90;6.90;;;0.50;99.90;;;;;;5145655;27;20285;-68
2021/11/29 07:43:02;;;;;;;15.37;6.50;;;0.50;99.90;;;;;;5142549;27;20276;-69
2021/11/29 07:45:31;;;;;;;10.57;6.97;;;0.50;99.90;;;;;;5117043;27;20299;-68
2021/11/29 07:48:01;;;;;;;11.43;7.00;;;0.50;99.90;;;;;;5146578;27;20197;-68
2021/11/29 07:50:30;;;;;;;10.07;6.57;;;0.50;99.90;;;;;;5142433;27;20216;-69
2021/11/29 07:52:59;;;;;;;10.67;6.70;;;0.50;99.90;;;;;;5137774;27;20194;-68
2021/11/29 07:55:29;;;;;;;13.13;6.57;;;0.70;99.90;;;;;;5121438;27;20209;-69
2021/11/29 07:58:00;;;;;;;7.17;5.73;;;0.80;99.90;;;;;;5142085;27;20254;-68
2021/11/29 08:00:32;;;;;;;9.90;6.97;;;0.90;99.90;;;;;;5132480;27;20258;-68
2021/11/29 08:03:04;;;;;;;13.27;6.47;;;0.90;99.90;;;;;;5138450;27;20229;-68
2021/11/29 08:05:34;;;;;;;9.73;6.50;;;1.00;99.90;;;;;;5135967;27;20198;-68
2021/11/29 08:08:08;;;;;;;16.77;6.77;;;1.00;99.90;;;;;;5119944;27;20195;-68
2021/11/29 08:10:37;;;;;;;9.50;6.77;;;1.00;99.90;;;;;;5124282;27;20205;-69
2021/11/29 08:13:08;;;;;;;11.47;6.67;;;1.00;99.90;;;;;;5137641;27;20194;-68
2021/11/29 08:15:37;;;;;;;10.83;6.33;;;1.00;99.90;;;;;;5144920;27;20206;-69
2021/11/29 08:18:08;;;;;;;10.20;6.47;;;1.00;99.90;;;;;;5144046;27;20197;-68
2021/11/29 08:20:39;;;;;;;11.60;6.53;;;1.00;99.90;;;;;;5150168;27;20261;-68
2021/11/29 08:23:09;;;;;;;19.30;10.27;;;1.00;99.90;;;;;;5141613;27;20190;-68
2021/11/29 08:25:40;;;;;;;11.73;7.83;;;1.00;99.90;;;;;;5148838;27;20182;-68
2021/11/29 08:28:09;;;;;;;10.90;7.60;;;1.00;99.90;;;;;;5146223;27;20679;-68
2021/11/29 08:30:38;;;;;;;12.63;6.93;;;1.00;99.90;;;;;;5126874;27;20196;-68
2021/11/29 08:33:11;;;;;;;12.10;8.50;;;1.00;99.90;;;;;;5150369;27;20189;-68
2021/11/29 08:35:40;;;;;;;14.63;8.13;;;1.00;99.90;;;;;;5113601;27;20221;-68
2021/11/29 08:38:09;;;;;;;12.33;8.33;;;1.10;99.90;;;;;;5130080;27;20710;-68
2021/11/29 08:40:38;;;;;;;12.43;7.37;;;1.20;99.90;;;;;;5153460;27;20231;-68
2021/11/29 08:43:10;;;;;;;8.73;7.30;;;1.20;99.90;;;;;;5146495;27;20252;-68
2021/11/29 08:45:41;;;;;;;13.60;7.70;;;1.10;99.90;;;;;;5149209;27;20228;-68
2021/11/29 08:48:13;;;;;;;17.83;9.17;;;1.10;99.90;;;;;;5149882;27;20562;-69
2021/11/29 08:50:44;;;;;;;20.13;9.37;;;1.10;99.90;;;;;;5151361;27;20198;-68
2021/11/29 08:53:17;;;;;;;198.23;87.60;;;1.10;99.90;;;;;;5152893;27;20208;-69
2021/11/29 08:55:45;;;;;;;61.83;28.97;;;1.20;99.90;;;;;;5132978;27;20210;-68
2021/11/29 08:58:14;;;;;;;12.47;8.07;;;1.20;99.90;;;;;;5145651;27;20276;-68
2021/11/29 09:00:45;;;;;;;10.77;7.53;;;1.30;99.90;;;;;;5114455;27;20643;-69
2021/11/29 09:03:15;;;;;;;13.87;7.97;;;1.40;99.90;;;;;;5129783;27;20208;-68
2021/11/29 09:05:47;;;;;;;14.53;7.90;;;1.50;99.90;;;;;;5151979;27;20238;-68
2021/11/29 09:08:16;;;;;;;14.17;7.47;;;1.60;99.90;;;;;;5142581;27;20193;-67
2021/11/29 09:10:46;;;;;;;16.83;7.70;;;1.70;99.90;;;;;;5149087;27;20202;-67
2021/11/29 09:13:35;;;;;;;12.13;8.23;;;1.70;99.90;;;;;;5130702;27;20203;-68
2021/11/29 09:16:07;;;;;;;11.17;7.20;;;1.80;99.90;;;;;;5134809;27;20273;-69
2021/11/29 09:18:38;;;;;;;13.13;7.43;;;1.90;99.90;;;;;;5128353;27;20663;-69
2021/11/29 09:21:07;;;;;;;11.77;7.13;;;2.00;99.90;;;;;;5150487;27;20694;-68
2021/11/29 09:23:36;;;;;;;11.50;7.37;;;2.10;99.90;;;;;;5147490;27;20196;-69
2021/11/29 09:26:05;;;;;;;11.40;6.97;;;2.20;99.90;;;;;;5147350;27;20178;-69
2021/11/29 09:28:35;;;;;;;10.20;7.27;;;2.30;99.90;;;;;;5129417;27;20255;-70
2021/11/29 09:31:04;;;;;;;17.33;7.27;;;2.50;99.90;;;;;;5152344;27;20190;-69
2021/11/29 09:33:33;;;;;;;14.30;7.20;;;2.50;99.90;;;;;;5151675;27;20189;-69
2021/11/29 09:36:05;;;;;;;16.60;7.80;;;2.60;99.90;;;;;;5125564;27;20213;-69
2021/11/29 09:38:34;;;;;;;13.20;6.80;;;2.80;99.90;;;;;;5127959;27;20695;-69
2021/11/29 09:41:04;;;;;;;14.27;6.83;;;2.90;99.90;;;;;;5135055;27;20197;-69
2021/11/29 09:43:35;;;;;;;9.77;6.97;;;2.90;99.90;;;;;;5147208;27;20528;-69
2021/11/29 09:46:05;;;;;;;11.10;7.40;;;2.90;99.90;;;;;;5141738;27;20217;-69
2021/11/29 09:48:34;;;;;;;12.07;7.03;;;3.20;99.90;;;;;;5123751;27;20193;-70
2021/11/29 09:51:24;;;;;;;10.17;6.20;;;3.40;99.90;;;;;;5137229;27;20205;-69
2021/11/29 09:53:53;;;;;;;10.93;5.77;;;3.50;99.90;;;;;;5141915;27;20668;-70
2021/11/29 09:56:22;;;;;;;12.43;5.00;;;3.40;99.90;;;;;;5140831;27;20220;-70
2021/11/29 09:58:50;;;;;;;8.10;5.00;;;3.40;99.90;;;;;;5130901;27;20197;-70
2021/11/29 10:01:19;;;;;;;9.37;4.30;;;3.30;99.90;;;;;;5153011;27;20715;-70
2021/11/29 10:04:01;;;;;;;10.90;4.50;;;3.20;99.90;;;;;;5146223;27;20342;-69
2021/11/29 10:06:32;;;;;;;6.73;4.30;;;3.00;99.90;;;;;;5149662;27;20194;-69
2021/11/29 10:09:03;;;;;;;8.03;4.37;;;2.90;99.90;;;;;;5150923;27;20212;-70
2021/11/29 10:11:32;;;;;;;8.37;4.60;;;2.90;99.90;;;;;;5143492;27;20204;-70
2021/11/29 10:14:05;;;;;;;10.30;5.23;;;2.90;99.90;;;;;;5144729;27;20198;-69
2021/11/29 10:16:36;;;;;;;10.30;4.80;;;3.00;99.90;;;;;;5147838;27;20210;-70
2021/11/29 10:19:07;;;;;;;5.13;4.63;;;3.20;99.90;;;;;;5120620;27;20193;-69
2021/11/29 10:21:38;;;;;;;7.33;5.03;;;3.50;99.90;;;;;;5149772;27;20200;-71
2021/11/29 10:24:13;;;;;;;10.57;4.40;;;3.70;99.90;;;;;;5145565;27;20259;-70
2021/11/29 10:26:42;;;;;;;12.97;5.70;;;3.80;99.90;;;;;;5114965;27;20197;-70
2021/11/29 10:29:12;;;;;;;10.60;5.03;;;3.90;99.90;;;;;;5152049;27;20223;-69
2021/11/29 10:31:43;;;;;;;9.73;5.53;;;4.20;99.90;;;;;;5150817;27;20193;-70
2021/11/29 10:34:13;;;;;;;9.03;4.43;;;4.40;99.90;;;;;;5147583;27;20190;-70
2021/11/29 10:36:46;;;;;;;7.77;3.70;;;4.40;99.90;;;;;;5147538;27;20269;-69
2021/11/29 10:39:17;;;;;;;9.53;3.87;;;4.40;99.90;;;;;;5145428;27;20748;-70
2021/11/29 10:41:47;;;;;;;4.93;3.50;;;4.40;99.90;;;;;;5151707;27;20662;-70
2021/11/29 10:44:18;;;;;;;6.60;3.53;;;4.30;99.90;;;;;;5129827;27;20195;-70
2021/11/29 10:46:50;;;;;;;4.40;3.47;;;4.20;99.90;;;;;;5130305;27;20272;-70
2021/11/29 10:49:21;;;;;;;4.93;3.27;;;4.30;99.90;;;;;;5147184;27;20249;-69
2021/11/29 10:51:52;;;;;;;3.83;3.50;;;4.20;99.90;;;;;;5141400;27;20259;-70
2021/11/29 10:54:22;;;;;;;12.87;4.03;;;4.20;99.90;;;;;;5146681;27;20197;-70
2021/11/29 10:56:55;;;;;;;6.23;3.50;;;4.20;99.90;;;;;;5144904;27;20291;-70
2021/11/29 10:59:26;;;;;;;9.97;3.90;;;4.30;99.90;;;;;;5145972;27;20297;-71
2021/11/29 11:01:57;;;;;;;10.73;3.83;;;4.30;99.90;;;;;;5127131;27;20818;-70
2021/11/29 11:04:28;;;;;;;10.10;3.60;;;4.30;99.90;;;;;;5143183;27;20196;-71
2021/11/29 11:07:00;;;;;;;9.57;3.40;;;4.60;99.90;;;;;;5135221;27;20200;-71
2021/11/29 11:09:31;;;;;;;5.77;3.10;;;4.90;99.90;;;;;;5138030;27;20841;-71
2021/11/29 11:12:01;;;;;;;5.00;3.10;;;5.20;99.90;;;;;;5134749;27;20202;-71
2021/11/29 11:14:34;;;;;;;7.13;2.97;;;5.40;99.90;;;;;;5140546;27;20197;-71
2021/11/29 11:17:24;;;;;;;7.00;2.50;;;5.60;99.90;;;;;;5138647;27;20219;-71
2021/11/29 11:19:54;;;;;;;3.80;2.30;;;5.80;99.90;;;;;;5141116;27;20265;-71
2021/11/29 11:22:28;;;;;;;5.33;2.23;;;6.20;99.90;;;;;;5143284;27;20236;-71
2021/11/29 11:24:59;;;;;;;5.90;2.50;;;6.50;99.90;;;;;;5140485;27;20193;-71
2021/11/29 11:27:30;;;;;;;7.07;2.47;;;6.90;99.90;;;;;;5142164;27;20197;-71
2021/11/29 11:29:59;;;;;;;8.33;2.20;;;7.20;99.90;;;;;;5135652;27;20201;-70
2021/11/29 11:32:33;;;;;;;9.47;2.13;;;7.40;99.90;;;;;;5136352;27;20246;-72
2021/11/29 11:35:06;;;;;;;5.67;2.00;;;7.40;99.90;;;;;;5122641;27;20254;-72
2021/11/29 11:37:39;;;;;;;6.70;3.03;;;7.40;99.90;;;;;;5137336;27;20698;-71
2021/11/29 11:40:11;;;;;;;7.33;2.60;;;7.30;99.90;;;;;;5139153;27;20197;-71
2021/11/29 11:42:39;;;;;;;10.47;3.37;;;7.10;99.90;;;;;;5119503;27;20563;-71
2021/11/29 11:45:11;;;;;;;7.60;3.30;;;6.90;99.90;;;;;;5117624;27;20237;-71
2021/11/29 11:47:40;;;;;;;7.90;3.90;;;6.70;99.90;;;;;;5136996;27;20747;-71
2021/11/29 11:50:10;;;;;;;8.77;4.50;;;6.60;99.90;;;;;;5138528;27;20264;-71
2021/11/29 11:52:41;;;;;;;15.83;4.60;;;6.50;99.90;;;;;;5129559;27;20201;-70
2021/11/29 11:55:11;;;;;;;11.47;4.03;;;6.40;99.90;;;;;;5139096;27;20251;-71
2021/11/29 11:57:55;;;;;;;10.17;4.37;;;6.20;99.90;;;;;;5135102;27;20182;-71
2021/11/29 12:00:28;;;;;;;4.30;2.27;;;6.20;99.90;;;;;;5150089;27;20776;-71
2021/11/29 12:03:27;;;;;;;9.70;3.20;;;6.20;99.90;;;;;;5143083;27;20207;-71
2021/11/29 12:05:58;;;;;;;9.83;3.00;;;6.30;99.90;;;;;;5127125;27;20237;-71
2021/11/29 12:08:38;;;;;;;6.10;3.87;;;6.30;99.90;;;;;;5126083;27;20220;-71
2021/11/29 12:11:33;;;;;;;13.00;4.73;;;6.50;99.90;;;;;;5145178;27;20220;-70
2021/11/29 12:14:07;;;;;;;5.53;2.80;;;6.70;99.90;;;;;;5139858;27;20276;-71
2021/11/29 12:16:39;;;;;;;9.00;2.77;;;6.80;99.90;;;;;;5141044;27;20631;-71
2021/11/29 12:19:14;;;;;;;7.20;2.63;;;6.80;99.90;;;;;;5151473;27;20204;-71
2021/11/29 12:21:44;;;;;;;6.13;2.60;;;6.80;99.90;;;;;;5125923;27;20201;-71
2021/11/29 12:24:19;;;;;;;9.30;3.80;;;6.80;99.90;;;;;;5152876;27;20719;-71
2021/11/29 12:27:04;;;;;;;20.80;6.10;;;6.90;99.90;;;;;;5133239;27;20200;-70
2021/11/29 12:29:59;;;;;;;13.27;4.80;;;7.10;99.90;;;;;;5144368;27;20246;-70
2021/11/29 12:32:28;;;;;;;3.93;2.50;;;7.30;99.90;;;;;;5098755;27;20209;-71
2021/11/29 12:35:01;;;;;;;4.60;2.60;;;7.50;99.90;;;;;;5153030;27;20205;-71
2021/11/29 12:37:32;;;;;;;3.33;2.60;;;7.60;99.90;;;;;;5151976;27;20210;-71
2021/11/29 12:40:06;;;;;;;5.30;2.03;;;7.60;99.90;;;;;;5156538;27;20247;-71
2021/11/29 12:43:00;;;;;;;3.20;2.10;;;7.70;99.90;;;;;;5118635;27;20185;-71
2021/11/29 12:45:32;;;;;;;3.83;1.90;;;7.70;99.90;;;;;;5150684;27;20739;-71
2021/11/29 12:48:14;;;;;;;4.80;1.90;;;7.80;99.90;;;;;;5132007;27;20652;-70
2021/11/29 12:50:55;;;;;;;7.53;2.40;;;7.90;99.90;;;;;;5146579;27;20198;-71
2021/11/29 12:53:33;;;;;;;1.83;1.73;;;8.10;99.90;;;;;;5148139;27;20208;-71
2021/11/29 12:56:24;;;;;;;3.93;1.80;;;8.10;99.90;;;;;;5145481;27;20535;-71
2021/11/29 12:59:04;;;;;;;7.03;2.00;;;8.00;99.90;;;;;;5139239;27;20213;-71
2021/11/29 13:01:38;;;;;;;9.43;2.10;;;8.10;99.90;;;;;;5146034;27;20220;-71
2021/11/29 13:04:22;;;;;;;4.13;1.80;;;8.10;99.90;;;;;;5148838;27;20345;-71
2021/11/29 13:06:56;;;;;;;6.73;1.80;;;8.00;99.90;;;;;;5148845;27;20189;-71
2021/11/29 13:09:36;;;;;;;5.27;1.70;;;8.10;99.90;;;;;;5125636;27;20207;-71
2021/11/29 13:12:18;;;;;;;3.50;1.60;;;8.10;99.90;;;;;;5129782;27;20612;-71